Time;durP1;ratioP1;P1;durP2;ratioP2;P2;SDS_P1;SDS_P2;PMS_P1;PMS_P2;Temp;Humidity;BMP_temperature;BMP_pressure;BME280_temperature;BME280_humidity;BME280_pressure;Samples;Min_cycle;Max_cycle;Signal;HPM_P1;HPM_P2
2022/01/12 00:01:31;;;;;;;13.88;8.73;;;0.80;99.90;;;;;;5085721;22;20044;-78
2022/01/12 00:03:57;;;;;;;17.60;9.73;;;0.80;99.90;;;;;;5050261;28;20032;-78
2022/01/12 00:06:24;;;;;;;12.93;8.10;;;0.80;99.90;;;;;;5059357;28;20057;-78
2022/01/12 00:08:50;;;;;;;14.38;8.68;;;0.90;99.90;;;;;;5048916;28;20033;-78
2022/01/12 00:11:17;;;;;;;12.52;8.32;;;1.00;99.90;;;;;;5040580;28;20022;-79
2022/01/12 00:13:43;;;;;;;13.13;8.40;;;1.00;99.90;;;;;;5034759;28;20048;-78
2022/01/12 00:16:09;;;;;;;16.02;8.52;;;1.70;99.90;;;;;;5034547;28;20037;-78
2022/01/12 00:18:34;;;;;;;12.93;7.57;;;0.90;99.90;;;;;;5033799;28;20072;-78
2022/01/12 00:21:01;;;;;;;14.38;8.05;;;1.70;99.90;;;;;;5032874;28;20033;-78
2022/01/12 00:23:26;;;;;;;15.55;7.53;;;1.10;99.90;;;;;;5017063;28;20138;-79
2022/01/12 00:34:03;;;;;;;10.88;7.32;;;1.10;99.90;;;;;;5035419;28;20083;-78
2022/01/12 00:36:29;;;;;;;13.18;7.25;;;1.20;99.90;;;;;;5035230;28;20045;-78
2022/01/12 00:38:56;;;;;;;10.68;6.97;;;1.30;99.90;;;;;;5032591;28;20048;-78
2022/01/12 00:41:22;;;;;;;11.25;6.75;;;1.10;99.90;;;;;;5033232;28;20524;-78
2022/01/12 00:43:55;;;;;;;9.80;6.93;;;1.20;99.90;;;;;;5035039;28;20033;-78
2022/01/12 00:46:21;;;;;;;9.77;6.53;;;1.20;99.90;;;;;;5033260;28;20038;-78
2022/01/12 00:48:47;;;;;;;10.40;6.82;;;1.20;99.90;;;;;;5033219;28;20648;-77
2022/01/12 00:51:12;;;;;;;10.65;6.85;;;1.30;99.90;;;;;;5033453;28;20045;-78
2022/01/12 00:53:41;;;;;;;11.60;6.43;;;2.40;99.90;;;;;;5036173;28;20036;-79
2022/01/12 00:56:07;;;;;;;12.27;7.07;;;1.10;99.90;;;;;;5049897;28;20030;-78
2022/01/12 00:58:34;;;;;;;10.73;7.10;;;1.10;99.90;;;;;;5038440;28;20068;-78
2022/01/12 01:01:00;;;;;;;11.27;7.22;;;1.10;99.90;;;;;;5050655;28;20038;-79
2022/01/12 01:03:28;;;;;;;12.27;7.30;;;1.10;99.90;;;;;;5038924;28;20044;-78
2022/01/12 01:05:54;;;;;;;11.32;6.85;;;1.00;99.90;;;;;;5038935;28;20026;-78
2022/01/12 01:08:20;;;;;;;12.30;7.95;;;0.90;99.90;;;;;;5037439;28;20100;-78
2022/01/12 01:10:46;;;;;;;11.05;7.18;;;0.90;99.90;;;;;;5038049;28;20026;-78
2022/01/12 01:13:14;;;;;;;11.13;7.40;;;0.90;99.90;;;;;;5039691;28;20433;-78
2022/01/12 01:15:57;;;;;;;12.45;7.85;;;0.80;99.90;;;;;;5039090;28;20459;-78
2022/01/12 01:26:39;;;;;;;15.20;7.78;;;0.60;99.90;;;;;;5040788;28;20037;-80
2022/01/12 01:29:05;;;;;;;11.10;7.40;;;0.30;99.90;;;;;;5038490;28;20075;-80
2022/01/12 01:31:33;;;;;;;12.63;7.07;;;0.30;99.90;;;;;;5038428;28;20026;-79
2022/01/12 01:34:06;;;;;;;15.90;7.57;;;0.40;99.90;;;;;;5041634;28;20064;-79
2022/01/12 01:36:39;;;;;;;13.40;7.97;;;0.10;99.90;;;;;;5038743;28;20121;-79
2022/01/12 01:39:05;;;;;;;;;;;1.40;99.90;;;;;;5035924;28;20053;-79
2022/01/12 01:41:31;;;;;;;13.05;7.38;;;-0.10;99.90;;;;;;5035993;28;19909;-79
2022/01/12 01:55:09;;;;;;;13.98;9.40;;;-0.70;99.90;;;;;;5036702;28;20043;-78
2022/01/12 01:57:35;;;;;;;16.35;9.50;;;;;;;;;;5036818;28;20040;-79
2022/01/12 02:00:09;;;;;;;18.63;10.65;;;;;;;;;;5026590;28;20037;-80
2022/01/12 02:02:34;;;;;;;17.20;9.95;;;-0.70;99.90;;;;;;5017559;28;20541;-79
2022/01/12 02:05:00;;;;;;;15.52;9.55;;;-0.30;99.90;;;;;;5017331;28;20064;-78
2022/01/12 02:07:26;;;;;;;16.67;9.75;;;-0.20;99.90;;;;;;5016175;28;20032;-80
2022/01/12 02:09:53;;;;;;;14.50;8.52;;;-0.20;99.90;;;;;;5025920;28;20034;-79
2022/01/12 02:12:27;;;;;;;13.55;8.35;;;-0.10;99.90;;;;;;5036283;28;20104;-79
2022/01/12 02:14:54;;;;;;;14.88;9.35;;;0.00;99.90;;;;;;5036412;28;20111;-79
2022/01/12 02:17:24;;;;;;;15.85;9.40;;;0.00;99.90;;;;;;5036468;28;20021;-79
2022/01/12 02:36:16;;;;;;;15.85;9.25;;;0.00;99.90;;;;;;5038172;28;20179;-78
2022/01/12 02:41:26;;;;;;;16.65;8.52;;;-0.10;99.90;;;;;;5034837;28;20052;-78
2022/01/12 02:54:45;;;;;;;14.40;8.13;;;-0.40;99.90;;;;;;5036749;28;20128;-79
2022/01/12 02:57:11;;;;;;;15.27;8.60;;;-0.40;99.90;;;;;;5036699;28;20034;-79
2022/01/12 02:59:38;;;;;;;16.65;9.95;;;-0.40;99.90;;;;;;5035947;28;20397;-78
2022/01/12 03:04:32;;;;;;;14.95;9.13;;;-0.60;99.90;;;;;;5036210;28;20029;-78
2022/01/12 03:07:05;;;;;;;12.93;8.32;;;-0.60;99.90;;;;;;5033324;28;20079;-78
2022/01/12 03:09:31;;;;;;;13.60;8.50;;;-0.80;99.90;;;;;;5028982;28;20030;-77
2022/01/12 03:11:57;;;;;;;16.85;9.00;;;-0.60;99.90;;;;;;5015456;28;20165;-79
2022/01/12 03:14:22;;;;;;;15.27;9.10;;;-0.60;99.90;;;;;;5019085;28;20034;-78
2022/01/12 03:16:48;;;;;;;12.80;8.23;;;-0.60;99.90;;;;;;5035527;28;20386;-79
2022/01/12 03:19:14;;;;;;;15.98;9.20;;;-0.80;99.90;;;;;;5028830;28;20034;-78
2022/01/12 03:21:39;;;;;;;13.65;8.38;;;-1.00;99.90;;;;;;5031736;28;20490;-79
2022/01/12 03:24:06;;;;;;;16.23;8.52;;;-1.00;99.90;;;;;;5034713;28;20037;-79
2022/01/12 03:26:33;;;;;;;16.08;9.23;;;-1.20;99.90;;;;;;5035222;28;20453;-78
2022/01/12 03:28:59;;;;;;;17.65;9.65;;;-1.30;99.90;;;;;;5034267;28;20021;-78
2022/01/12 03:31:29;;;;;;;29.40;15.68;;;-1.30;99.90;;;;;;5034090;28;20450;-78
2022/01/12 03:34:08;;;;;;;44.58;21.17;;;-1.30;99.90;;;;;;5035231;28;20116;-79
2022/01/12 03:36:43;;;;;;;50.67;23.20;;;-1.00;99.90;;;;;;5034538;28;20043;-78
2022/01/12 03:39:10;;;;;;;25.65;13.15;;;-0.90;99.90;;;;;;5033080;28;20032;-77
2022/01/12 03:41:37;;;;;;;19.45;11.35;;;-1.00;99.90;;;;;;5032995;28;20061;-78
2022/01/12 03:44:06;;;;;;;18.77;10.80;;;-0.90;99.90;;;;;;5034241;28;20108;-78
2022/01/12 03:46:35;;;;;;;15.80;9.48;;;-1.00;99.90;;;;;;5032381;28;20053;-78
2022/01/12 03:49:01;;;;;;;16.15;10.57;;;-0.30;99.90;;;;;;5028022;28;20041;-78
2022/01/12 03:51:27;;;;;;;17.98;10.50;;;-1.10;99.90;;;;;;5019783;28;20033;-78
2022/01/12 03:53:52;;;;;;;15.30;10.20;;;-1.10;99.90;;;;;;5031785;28;20413;-77
2022/01/12 03:56:18;;;;;;;19.30;10.25;;;-1.20;99.90;;;;;;5031895;28;20106;-77
2022/01/12 03:58:44;;;;;;;16.27;9.27;;;-1.20;99.90;;;;;;5042344;28;20452;-78
2022/01/12 04:01:10;;;;;;;21.55;11.65;;;-1.10;99.90;;;;;;5049041;28;20029;-78
2022/01/12 04:03:43;;;;;;;26.35;12.65;;;-1.10;99.90;;;;;;5046759;28;20575;-77
2022/01/12 04:08:53;;;;;;;19.65;11.10;;;-1.20;99.90;;;;;;5040183;28;20056;-78
2022/01/12 04:11:19;;;;;;;22.25;12.05;;;-1.20;99.90;;;;;;5021324;28;20038;-78
2022/01/12 04:13:47;;;;;;;20.08;10.45;;;-1.30;99.90;;;;;;5023418;28;20461;-77
2022/01/12 04:16:13;;;;;;;17.27;9.98;;;-1.30;99.90;;;;;;5024554;28;20037;-78
2022/01/12 04:18:39;;;;;;;20.92;10.85;;;-1.30;99.90;;;;;;5034198;28;20113;-78
2022/01/12 04:21:08;;;;;;;19.67;11.05;;;-1.30;99.90;;;;;;5041001;28;20021;-77
2022/01/12 04:23:35;;;;;;;17.83;10.07;;;-1.30;99.90;;;;;;5047306;28;20102;-76
2022/01/12 04:26:09;;;;;;;15.00;9.05;;;-1.30;99.90;;;;;;5045768;28;20123;-78
2022/01/12 04:28:37;;;;;;;21.20;11.48;;;-1.30;99.90;;;;;;5022623;28;20099;-78
2022/01/12 04:31:02;;;;;;;20.98;11.98;;;-1.40;99.90;;;;;;5039456;28;20581;-78
2022/01/12 04:33:30;;;;;;;23.15;11.27;;;-1.40;99.90;;;;;;5038496;28;20095;-78
2022/01/12 04:35:56;;;;;;;21.33;11.27;;;-1.30;99.90;;;;;;5037987;28;20131;-78
2022/01/12 04:38:27;;;;;;;20.30;11.50;;;-1.50;99.90;;;;;;5037328;28;20056;-76
2022/01/12 04:40:53;;;;;;;22.63;11.82;;;-0.20;99.90;;;;;;5037199;28;20036;-79
2022/01/12 04:43:20;;;;;;;25.20;13.02;;;-1.70;99.90;;;;;;5037544;28;20026;-78
2022/01/12 04:50:47;;;;;;;19.90;10.77;;;-1.80;99.90;;;;;;5036789;28;20029;-79
2022/01/12 04:53:14;;;;;;;17.30;9.63;;;-1.90;99.90;;;;;;5038449;28;20033;-78
2022/01/12 04:55:41;;;;;;;15.15;9.05;;;-2.00;99.90;;;;;;5037682;28;20056;-79
2022/01/12 04:58:07;;;;;;;16.42;9.77;;;-2.20;99.90;;;;;;5038350;28;20041;-79
2022/01/12 05:00:35;;;;;;;21.40;11.20;;;-2.20;99.90;;;;;;5037474;28;20052;-79
2022/01/12 05:13:43;;;;;;;24.92;12.35;;;-1.80;99.90;;;;;;5038388;28;20031;-78
2022/01/12 05:16:10;;;;;;;25.02;12.63;;;-1.60;99.90;;;;;;5036976;28;20087;-77
2022/01/12 05:18:36;;;;;;;21.75;12.07;;;-1.50;99.90;;;;;;5014547;28;20367;-77
2022/01/12 05:21:03;;;;;;;25.45;12.48;;;-1.40;99.90;;;;;;5026171;28;20029;-76
2022/01/12 05:23:29;;;;;;;21.50;11.63;;;-1.30;99.90;;;;;;5032625;28;20149;-77
2022/01/12 05:25:55;;;;;;;19.77;11.77;;;-1.20;99.90;;;;;;5015893;28;20120;-77
2022/01/12 05:28:22;;;;;;;25.02;13.00;;;-1.00;99.90;;;;;;5033655;28;20026;-77
2022/01/12 05:30:49;;;;;;;27.02;13.07;;;-1.10;99.90;;;;;;5030254;28;20030;-77
2022/01/12 05:33:15;;;;;;;26.90;13.05;;;-1.30;99.90;;;;;;5034088;28;20083;-78
2022/01/12 05:35:42;;;;;;;24.42;12.93;;;-1.30;99.90;;;;;;5033214;28;20113;-77
2022/01/12 05:38:10;;;;;;;27.75;12.90;;;-1.20;99.90;;;;;;5016580;28;20401;-77
2022/01/12 05:40:38;;;;;;;22.63;11.68;;;-1.10;99.90;;;;;;5033467;28;20032;-77
2022/01/12 05:43:03;;;;;;;21.50;11.63;;;-0.30;99.90;;;;;;5032412;28;20115;-77
2022/01/12 05:45:32;;;;;;;22.52;11.88;;;-1.20;99.90;;;;;;5033089;28;20466;-76
2022/01/12 05:50:26;;;;;;;22.42;11.57;;;-1.20;99.90;;;;;;5033027;28;20101;-78
2022/01/12 05:52:52;;;;;;;22.42;11.55;;;-1.20;99.90;;;;;;5033828;28;20076;-77
2022/01/12 05:55:18;;;;;;;25.25;12.10;;;-1.10;99.90;;;;;;5032779;28;20037;-77
2022/01/12 05:57:44;;;;;;;20.15;12.43;;;-1.20;99.90;;;;;;5032658;28;20111;-77
2022/01/12 06:00:14;;;;;;;22.02;11.93;;;1.00;99.90;;;;;;5032026;28;20143;-77
2022/01/12 06:02:41;;;;;;;15.57;10.20;;;-1.20;99.90;;;;;;5032132;28;20037;-77
2022/01/12 06:05:07;;;;;;;20.17;10.20;;;-1.10;99.90;;;;;;5035004;23;20060;-77
2022/01/12 06:07:33;;;;;;;19.92;10.10;;;-1.00;99.90;;;;;;5029520;28;20660;-77
2022/01/12 06:09:59;;;;;;;14.77;8.70;;;-0.80;99.90;;;;;;5015710;28;20030;-77
2022/01/12 06:12:25;;;;;;;17.13;10.27;;;-0.70;99.90;;;;;;5014514;28;20079;-77
2022/01/12 06:14:51;;;;;;;18.98;9.65;;;-0.70;99.90;;;;;;5012759;28;20022;-77
2022/01/12 06:17:17;;;;;;;16.35;9.85;;;0.20;99.90;;;;;;5013828;28;20063;-76
2022/01/12 06:19:42;;;;;;;19.10;10.85;;;-0.60;99.90;;;;;;5012871;28;20119;-77
2022/01/12 06:22:08;;;;;;;18.48;10.52;;;-0.70;99.90;;;;;;5011901;28;20105;-77
2022/01/12 06:24:34;;;;;;;19.45;10.68;;;-0.50;99.90;;;;;;5013515;28;20080;-77
2022/01/12 06:27:01;;;;;;;19.33;10.77;;;-0.50;99.90;;;;;;5013043;28;20034;-77
2022/01/12 06:29:39;;;;;;;19.42;11.32;;;-0.80;99.90;;;;;;5009653;28;20121;-76
2022/01/12 06:32:05;;;;;;;16.15;9.80;;;-0.90;99.90;;;;;;5011445;28;20025;-77
2022/01/12 06:34:31;;;;;;;18.30;10.20;;;-1.10;99.90;;;;;;5012725;28;20498;-76
2022/01/12 06:36:57;;;;;;;19.50;10.82;;;-1.00;99.90;;;;;;5014076;28;20045;-76
2022/01/12 06:39:23;;;;;;;17.13;10.48;;;-1.10;99.90;;;;;;5026018;28;20034;-76
2022/01/12 06:41:52;;;;;;;15.93;10.18;;;-0.70;99.90;;;;;;5023851;28;20029;-76
2022/01/12 06:44:20;;;;;;;20.38;11.15;;;-1.20;99.90;;;;;;5028993;28;20034;-76
2022/01/12 06:46:50;;;;;;;18.60;10.70;;;-1.40;99.90;;;;;;5012889;28;20442;-76
2022/01/12 06:49:16;;;;;;;24.20;11.25;;;-1.40;99.90;;;;;;5012506;28;20041;-76
2022/01/12 06:51:44;;;;;;;19.67;11.80;;;-1.00;99.90;;;;;;5023383;28;20053;-76
2022/01/12 06:54:10;;;;;;;20.90;11.55;;;-1.20;99.90;;;;;;5016601;28;20088;-76
2022/01/12 06:56:36;;;;;;;19.75;11.07;;;-1.20;99.90;;;;;;5011427;28;20079;-76
2022/01/12 06:59:03;;;;;;;20.30;11.27;;;-1.50;99.90;;;;;;5011960;28;20030;-76
2022/01/12 07:01:29;;;;;;;25.80;11.90;;;-1.30;99.90;;;;;;5011644;28;20049;-77
2022/01/12 07:03:54;;;;;;;22.73;10.85;;;-1.60;99.90;;;;;;5011440;28;20038;-76
2022/01/12 07:06:20;;;;;;;19.85;12.18;;;-1.60;99.90;;;;;;5010924;28;20041;-76
2022/01/12 07:08:46;;;;;;;20.60;12.23;;;-1.50;99.90;;;;;;5010660;28;20445;-77
2022/01/12 07:11:12;;;;;;;17.23;12.15;;;-1.40;99.90;;;;;;5010956;28;20053;-76
2022/01/12 07:13:37;;;;;;;18.70;11.65;;;-1.50;99.90;;;;;;5013962;28;20080;-77
2022/01/12 07:16:03;;;;;;;20.80;12.32;;;-1.50;99.90;;;;;;5014362;28;20104;-76
2022/01/12 07:18:29;;;;;;;19.60;12.32;;;-1.60;99.90;;;;;;5013230;28;20030;-76
2022/01/12 07:20:55;;;;;;;19.25;12.75;;;-1.60;99.90;;;;;;5013067;28;20084;-76
2022/01/12 07:23:22;;;;;;;19.95;12.18;;;-1.80;99.90;;;;;;5011234;28;20434;-77
2022/01/12 07:25:47;;;;;;;20.95;12.50;;;-1.40;99.90;;;;;;5011755;28;20080;-77
2022/01/12 07:28:13;;;;;;;20.23;11.82;;;-1.60;99.90;;;;;;5011005;28;20030;-76
2022/01/12 07:30:39;;;;;;;19.80;12.00;;;-1.80;99.90;;;;;;5010897;28;20037;-76
2022/01/12 07:33:04;;;;;;;19.65;12.93;;;-1.70;99.90;;;;;;5012343;28;20026;-77
2022/01/12 07:35:30;;;;;;;22.92;12.32;;;-1.90;99.90;;;;;;5027429;28;20488;-77
2022/01/12 07:37:56;;;;;;;20.05;12.25;;;-1.80;99.90;;;;;;4991538;28;20061;-76
2022/01/12 07:40:21;;;;;;;21.30;13.02;;;-1.10;99.90;;;;;;5006729;28;20586;-76
2022/01/12 07:42:47;;;;;;;19.88;12.07;;;-1.90;99.90;;;;;;5012111;28;20033;-76
2022/01/12 07:45:13;;;;;;;25.42;14.00;;;-1.90;99.90;;;;;;5012244;28;20052;-76
2022/01/12 07:47:39;;;;;;;22.92;13.00;;;-1.90;99.90;;;;;;5027276;28;20529;-76
2022/01/12 07:50:06;;;;;;;22.30;13.48;;;-0.60;99.90;;;;;;5011182;28;20026;-76
2022/01/12 07:52:32;;;;;;;24.45;14.38;;;-1.60;99.90;;;;;;4995582;28;20031;-76
2022/01/12 07:54:58;;;;;;;25.40;16.08;;;-0.10;99.90;;;;;;4992521;28;20026;-75
2022/01/12 07:57:24;;;;;;;23.65;14.77;;;-1.40;99.90;;;;;;4991874;28;20041;-77
2022/01/12 07:59:50;;;;;;;25.30;13.95;;;-0.40;99.90;;;;;;4992732;28;20022;-76
2022/01/12 08:02:15;;;;;;;17.48;11.80;;;-0.90;99.90;;;;;;4994415;28;20033;-76
2022/01/12 08:04:41;;;;;;;16.45;10.60;;;-0.60;99.90;;;;;;4996758;28;20081;-76
2022/01/12 08:07:10;;;;;;;17.77;10.32;;;-0.70;99.90;;;;;;5014501;28;20034;-76
2022/01/12 08:09:39;;;;;;;18.60;10.60;;;-0.50;99.90;;;;;;5015500;28;20072;-76
2022/01/12 08:12:05;;;;;;;19.73;11.20;;;-0.30;99.90;;;;;;5015657;28;20018;-75
2022/01/12 08:14:31;;;;;;;13.60;9.50;;;-0.40;99.90;;;;;;5015848;28;20036;-75
2022/01/12 08:16:56;;;;;;;18.98;10.40;;;2.30;99.90;;;;;;5014626;28;20038;-75
2022/01/12 08:19:23;;;;;;;16.83;10.60;;;-0.10;99.90;;;;;;5014956;28;20060;-76
2022/01/12 08:21:49;;;;;;;16.48;10.70;;;-0.10;99.90;;;;;;5015299;28;20364;-76
2022/01/12 08:24:16;;;;;;;19.13;11.63;;;0.10;99.90;;;;;;5015358;28;20104;-77
2022/01/12 08:26:42;;;;;;;23.08;11.10;;;-0.30;99.90;;;;;;5016074;28;20021;-77
2022/01/12 08:29:14;;;;;;;15.13;10.70;;;-0.20;99.90;;;;;;5013887;28;20029;-77
2022/01/12 08:31:39;;;;;;;21.52;12.68;;;0.20;99.90;;;;;;5045654;28;20022;-77
2022/01/12 08:34:05;;;;;;;17.33;10.57;;;-0.10;99.90;;;;;;5016068;28;20041;-77
2022/01/12 08:36:30;;;;;;;15.48;10.75;;;0.00;99.90;;;;;;5016159;28;20041;-77
2022/01/12 08:38:57;;;;;;;21.55;11.38;;;-0.10;99.90;;;;;;5046905;28;20022;-77
2022/01/12 08:41:23;;;;;;;17.60;11.43;;;-0.10;99.90;;;;;;5015436;28;20041;-79
2022/01/12 08:43:49;;;;;;;18.60;12.43;;;0.60;99.90;;;;;;5048530;28;20038;-77
2022/01/12 08:46:15;;;;;;;19.73;11.60;;;-0.10;99.90;;;;;;5017023;28;20396;-78
2022/01/12 08:48:40;;;;;;;19.92;12.95;;;0.40;99.90;;;;;;5031080;28;20029;-76
2022/01/12 08:51:06;;;;;;;18.92;12.93;;;0.10;99.90;;;;;;4998963;28;20026;-77
2022/01/12 08:53:32;;;;;;;19.58;12.25;;;0.20;99.90;;;;;;5016712;28;20057;-78
2022/01/12 08:55:57;;;;;;;19.55;12.85;;;0.30;99.90;;;;;;5001567;28;20080;-78
2022/01/12 08:58:23;;;;;;;18.63;11.32;;;0.40;99.90;;;;;;5017267;28;20034;-78
2022/01/12 09:00:48;;;;;;;21.02;13.25;;;0.70;99.90;;;;;;5016613;28;20042;-77
2022/01/12 09:03:14;;;;;;;35.30;19.95;;;0.90;99.90;;;;;;5018879;28;20037;-77
2022/01/12 09:05:40;;;;;;;30.38;17.63;;;1.10;99.90;;;;;;5025865;28;20041;-77
2022/01/12 09:08:06;;;;;;;27.48;17.20;;;2.00;99.90;;;;;;5028639;28;20026;-77
2022/01/12 09:10:33;;;;;;;22.75;15.15;;;3.50;99.90;;;;;;5027870;28;20094;-77
2022/01/12 09:12:59;;;;;;;23.88;15.02;;;6.10;99.90;;;;;;5027669;28;20022;-77
2022/01/12 09:15:25;;;;;;;22.52;14.82;;;5.30;99.90;;;;;;5028294;28;20121;-77
2022/01/12 09:17:53;;;;;;;25.38;15.88;;;5.80;99.90;;;;;;5061465;28;20548;-77
2022/01/12 09:20:19;;;;;;;18.17;12.43;;;6.70;99.90;;;;;;5021159;28;20033;-78
2022/01/12 09:22:45;;;;;;;16.40;11.65;;;6.20;99.90;;;;;;5019320;28;20053;-77
2022/01/12 09:25:11;;;;;;;14.40;9.50;;;7.80;99.90;;;;;;5019154;28;20037;-78
2022/01/12 09:27:38;;;;;;;18.23;10.15;;;6.70;99.90;;;;;;5020427;28;20021;-78
2022/01/12 09:30:07;;;;;;;31.40;18.30;;;7.10;99.90;;;;;;5003767;28;20046;-78
2022/01/12 09:32:32;;;;;;;12.93;9.07;;;7.30;99.90;;;;;;5023035;28;20025;-78
2022/01/12 09:34:58;;;;;;;15.52;10.38;;;9.00;99.90;;;;;;5041998;28;20025;-78
2022/01/12 09:37:24;;;;;;;13.32;7.85;;;9.50;99.50;;;;;;5041398;28;20041;-78
2022/01/12 09:39:49;;;;;;;14.95;10.00;;;8.20;97.20;;;;;;5030884;28;20037;-78
2022/01/12 09:42:16;;;;;;;9.45;6.50;;;8.60;96.80;;;;;;5019240;28;20022;-77
2022/01/12 09:44:47;;;;;;;12.80;8.38;;;9.40;96.60;;;;;;5034497;28;20038;-77
2022/01/12 09:47:13;;;;;;;18.88;12.27;;;10.20;96.30;;;;;;5021871;28;20036;-77
2022/01/12 09:49:42;;;;;;;11.38;7.25;;;9.10;94.30;;;;;;5020490;28;20041;-77
2022/01/12 09:52:08;;;;;;;11.85;7.68;;;9.10;93.70;;;;;;5022145;28;20033;-77
2022/01/12 09:54:34;;;;;;;12.07;7.00;;;10.30;92.70;;;;;;5019026;28;20128;-77
2022/01/12 09:57:00;;;;;;;9.15;6.95;;;10.00;91.40;;;;;;5016191;28;20041;-77
2022/01/12 09:59:26;;;;;;;11.65;7.45;;;10.40;90.30;;;;;;5018097;28;20078;-77
2022/01/12 10:01:54;;;;;;;10.43;7.30;;;10.10;90.20;;;;;;5020552;28;20034;-77
2022/01/12 10:04:26;;;;;;;12.05;7.65;;;9.70;90.40;;;;;;5052415;28;20053;-77
2022/01/12 10:06:53;;;;;;;11.43;8.20;;;9.50;91.20;;;;;;5016928;28;20077;-77
2022/01/12 10:09:32;;;;;;;12.02;7.85;;;9.90;91.80;;;;;;5018113;28;20026;-76
2022/01/12 10:12:04;;;;;;;12.48;8.55;;;8.50;91.70;;;;;;5051877;28;20125;-77
2022/01/12 10:14:55;;;;;;;11.82;7.80;;;8.70;92.80;;;;;;5023931;28;20029;-77
2022/01/12 10:17:33;;;;;;;11.65;7.53;;;8.80;91.80;;;;;;5024071;28;20049;-77
2022/01/12 10:20:07;;;;;;;10.50;7.93;;;10.20;92.30;;;;;;5023781;28;20033;-77
2022/01/12 10:22:32;;;;;;;11.10;7.53;;;9.70;90.00;;;;;;5018960;28;20087;-78
2022/01/12 10:25:01;;;;;;;11.57;8.00;;;11.10;90.60;;;;;;5015844;28;20113;-78
2022/01/12 10:27:26;;;;;;;10.63;7.38;;;12.30;89.50;;;;;;4998349;28;20061;-78
2022/01/12 10:29:57;;;;;;;10.35;7.18;;;10.40;87.70;;;;;;5014804;28;20038;-77
2022/01/12 10:32:23;;;;;;;15.70;8.27;;;10.20;89.00;;;;;;5047258;28;20022;-77
2022/01/12 10:34:50;;;;;;;9.95;7.32;;;10.80;88.80;;;;;;5017348;28;20109;-77
2022/01/12 10:37:22;;;;;;;10.32;7.38;;;10.50;87.60;;;;;;5019166;28;20105;-77
2022/01/12 10:39:50;;;;;;;10.63;7.63;;;12.20;87.00;;;;;;5017224;28;20117;-77
2022/01/12 10:42:27;;;;;;;13.40;8.82;;;12.20;86.80;;;;;;5019682;28;20054;-78
2022/01/12 10:44:55;;;;;;;12.57;8.25;;;11.10;83.50;;;;;;5023163;28;20040;-77
2022/01/12 10:47:24;;;;;;;12.32;8.20;;;11.70;83.00;;;;;;5025004;28;20026;-77
2022/01/12 10:49:52;;;;;;;11.88;7.50;;;12.90;81.10;;;;;;5024957;28;20074;-77
2022/01/12 10:52:19;;;;;;;10.10;6.97;;;12.30;79.50;;;;;;5038908;28;20021;-78
2022/01/12 10:54:55;;;;;;;9.57;7.22;;;12.30;78.80;;;;;;5040571;28;20032;-78
2022/01/12 10:57:28;;;;;;;9.50;6.70;;;12.20;77.90;;;;;;5040886;28;20021;-78
2022/01/12 11:00:20;;;;;;;9.43;7.10;;;12.60;76.20;;;;;;5034435;28;20030;-78
2022/01/12 11:02:51;;;;;;;8.95;7.18;;;12.70;74.30;;;;;;5002806;28;20038;-79
2022/01/12 11:05:21;;;;;;;10.18;6.93;;;12.40;76.80;;;;;;5003551;28;20030;-79
2022/01/12 11:07:48;;;;;;;10.23;6.50;;;12.30;76.80;;;;;;5002473;28;20076;-78
2022/01/12 11:10:15;;;;;;;8.88;6.28;;;12.70;74.00;;;;;;5000531;28;20076;-79
2022/01/12 11:12:41;;;;;;;7.38;5.50;;;12.80;74.40;;;;;;5022550;28;20033;-79
2022/01/12 11:15:09;;;;;;;8.18;5.60;;;12.90;72.30;;;;;;5022464;28;20030;-79
2022/01/12 11:17:38;;;;;;;9.00;6.50;;;12.50;71.20;;;;;;5022305;28;20026;-80
2022/01/12 11:20:14;;;;;;;8.13;6.60;;;12.50;73.40;;;;;;5021197;28;20033;-80
2022/01/12 11:22:40;;;;;;;7.30;5.45;;;12.40;72.10;;;;;;5022573;28;20026;-79
2022/01/12 11:25:21;;;;;;;7.57;5.38;;;13.00;71.70;;;;;;5021925;28;20402;-79
2022/01/12 11:27:51;;;;;;;8.77;5.65;;;12.70;69.90;;;;;;5021909;28;20025;-79
2022/01/12 11:30:19;;;;;;;8.40;5.72;;;13.90;70.40;;;;;;4990092;28;20498;-80
2022/01/12 11:32:55;;;;;;;10.52;6.78;;;12.90;71.20;;;;;;5053041;28;20067;-79
2022/01/12 11:35:29;;;;;;;10.73;6.13;;;13.10;70.30;;;;;;5021035;28;20022;-78
2022/01/12 11:37:59;;;;;;;7.78;5.50;;;13.30;71.90;;;;;;5021821;28;20018;-79
2022/01/12 11:40:36;;;;;;;8.90;5.53;;;13.70;70.30;;;;;;5022331;28;20072;-80
2022/01/12 11:43:03;;;;;;;7.53;5.53;;;12.50;68.20;;;;;;5017751;28;20033;-79
2022/01/12 11:45:29;;;;;;;8.45;5.65;;;12.70;70.10;;;;;;5020956;28;20104;-80
2022/01/12 11:47:57;;;;;;;9.00;5.45;;;12.50;70.60;;;;;;5004519;28;20408;-80
2022/01/12 11:50:22;;;;;;;7.38;4.72;;;13.40;70.20;;;;;;5006063;28;20080;-79
2022/01/12 11:52:48;;;;;;;8.02;5.22;;;12.90;71.80;;;;;;5000743;28;20068;-79
2022/01/12 11:55:17;;;;;;;7.32;5.80;;;13.20;68.70;;;;;;4999650;28;20038;-78
2022/01/12 11:57:52;;;;;;;9.45;5.40;;;13.50;68.20;;;;;;5000554;28;20034;-78
2022/01/12 12:00:30;;;;;;;10.20;5.90;;;13.50;66.40;;;;;;4998167;28;20462;-78
2022/01/12 12:02:56;;;;;;;9.63;6.70;;;14.00;69.00;;;;;;4981460;28;20508;-79
2022/01/12 12:05:30;;;;;;;6.57;4.85;;;14.90;70.50;;;;;;4996853;28;20035;-79
2022/01/12 12:08:02;;;;;;;7.32;5.05;;;13.30;68.20;;;;;;4995766;28;20399;-78
2022/01/12 12:10:32;;;;;;;7.47;4.60;;;13.10;68.40;;;;;;4994086;28;20386;-78
2022/01/12 12:12:58;;;;;;;5.88;4.70;;;13.70;68.20;;;;;;4994772;28;20395;-78
2022/01/12 12:15:25;;;;;;;7.15;5.40;;;12.20;69.90;;;;;;4994216;28;20054;-78
2022/01/12 12:17:52;;;;;;;7.57;5.05;;;14.10;71.20;;;;;;4977279;28;20027;-76
2022/01/12 12:20:22;;;;;;;7.07;4.97;;;13.10;69.80;;;;;;4992106;28;20054;-77
2022/01/12 12:22:49;;;;;;;9.05;5.93;;;12.20;70.20;;;;;;5011746;28;20026;-76
2022/01/12 12:25:21;;;;;;;9.52;5.50;;;14.20;71.40;;;;;;4989100;28;20030;-77
2022/01/12 12:27:52;;;;;;;7.78;5.55;;;13.10;65.70;;;;;;4992530;28;20029;-77
2022/01/12 12:30:20;;;;;;;8.13;5.47;;;13.20;68.40;;;;;;4990947;28;20050;-78
2022/01/12 12:33:02;;;;;;;8.02;5.72;;;14.70;68.60;;;;;;5010834;28;20022;-77
2022/01/12 12:35:31;;;;;;;8.18;5.07;;;13.30;66.70;;;;;;5012139;28;20033;-77
2022/01/12 12:38:09;;;;;;;6.88;5.20;;;13.10;67.90;;;;;;5010856;28;20029;-77
2022/01/12 12:40:35;;;;;;;6.82;5.00;;;13.40;65.80;;;;;;4994858;28;20030;-78
2022/01/12 12:43:06;;;;;;;7.78;5.45;;;13.00;69.20;;;;;;4991656;28;20030;-78
2022/01/12 12:45:48;;;;;;;8.52;5.63;;;12.80;66.00;;;;;;4987849;28;20039;-77
2022/01/12 12:48:17;;;;;;;7.57;5.50;;;12.60;70.00;;;;;;4989072;28;20050;-77
2022/01/12 12:50:44;;;;;;;6.60;4.82;;;12.60;69.70;;;;;;4990711;28;20030;-78
2022/01/12 12:53:10;;;;;;;7.90;5.57;;;14.60;70.50;;;;;;4991945;28;20037;-78
2022/01/12 12:55:39;;;;;;;8.10;5.13;;;14.20;69.50;;;;;;4992672;28;20030;-78
2022/01/12 12:58:06;;;;;;;8.52;5.30;;;13.20;69.00;;;;;;5007534;28;20030;-77
2022/01/12 13:00:33;;;;;;;6.18;4.30;;;12.60;71.60;;;;;;4990095;28;20042;-78
2022/01/12 13:03:00;;;;;;;6.10;4.53;;;12.80;69.30;;;;;;4991708;28;20033;-77
2022/01/12 13:05:32;;;;;;;7.15;4.50;;;13.50;69.60;;;;;;4991524;28;20045;-78
2022/01/12 13:07:58;;;;;;;7.13;5.22;;;12.50;68.50;;;;;;4991520;28;20105;-78
2022/01/12 13:10:30;;;;;;;6.88;4.93;;;12.30;70.50;;;;;;4988892;28;20133;-77
2022/01/12 13:12:59;;;;;;;7.75;4.75;;;11.60;71.00;;;;;;4993294;28;20431;-77
2022/01/12 13:15:30;;;;;;;8.85;5.03;;;11.40;71.50;;;;;;4991035;28;20034;-78
2022/01/12 13:18:04;;;;;;;8.10;5.65;;;11.00;72.30;;;;;;4991814;28;20019;-77
2022/01/12 13:23:22;;;;;;;8.90;5.38;;;11.00;72.90;;;;;;4995695;28;20245;-78
2022/01/12 13:25:49;;;;;;;7.20;5.20;;;10.80;74.70;;;;;;5001612;28;20053;-77
2022/01/12 13:28:18;;;;;;;7.38;5.20;;;11.20;74.50;;;;;;5012960;28;20069;-77
2022/01/12 13:30:50;;;;;;;6.90;4.82;;;10.10;75.20;;;;;;5009735;28;20029;-77
2022/01/12 13:33:28;;;;;;;7.88;4.78;;;9.80;77.80;;;;;;5009781;28;20034;-77
2022/01/12 13:35:54;;;;;;;9.45;6.00;;;9.60;77.20;;;;;;5011530;28;20026;-78
2022/01/12 13:38:29;;;;;;;6.85;4.85;;;10.30;78.20;;;;;;4995040;28;20022;-77
2022/01/12 13:40:58;;;;;;;7.90;5.20;;;10.30;77.20;;;;;;4989204;28;20034;-76
2022/01/12 13:43:24;;;;;;;9.40;5.50;;;10.30;76.20;;;;;;4991458;28;20109;-78
2022/01/12 13:45:59;;;;;;;6.90;4.68;;;10.50;77.00;;;;;;4990879;28;20035;-77
2022/01/12 13:48:30;;;;;;;9.00;5.05;;;10.60;76.40;;;;;;4992285;28;20049;-77
2022/01/12 13:50:59;;;;;;;8.00;4.75;;;11.50;75.60;;;;;;4983536;28;20022;-77
2022/01/12 13:53:36;;;;;;;6.82;4.68;;;10.50;75.90;;;;;;4997713;28;20023;-77
2022/01/12 13:56:04;;;;;;;7.80;5.75;;;10.40;77.70;;;;;;4997916;28;20026;-77
2022/01/12 13:58:32;;;;;;;8.48;5.32;;;10.20;78.00;;;;;;4995857;28;20558;-77
2022/01/12 14:01:05;;;;;;;7.90;5.47;;;10.60;77.20;;;;;;4994056;28;20081;-77
2022/01/12 14:03:56;;;;;;;6.53;4.68;;;10.70;75.60;;;;;;4995269;28;20031;-76
2022/01/12 14:06:26;;;;;;;6.75;5.13;;;10.80;76.00;;;;;;4996845;28;20034;-77